Natalia, TX (78059)

5:47 PM CST on February 27, 2015 (GMT -0600)
Lytle, Atascosa County | Change Station
CLOSE
Current Station
Personal Weather Station
Location: Lytle, TX
Elevation: 712 ft
Nearby Weather Stations

Elev 712 ft 29.23 °N, 98.76 °W | Updated 6 minutes ago

Overcast
Overcast
33.5 °F
Feels Like 24 °F
N
14.0
Wind Variable Wind from NE
Gusts 15.0 mph

Today
High -- | Low -- °F
--% Chance of Precip.
Yesterday
High -- | Low -- °F
Precip. -- in
7:03 AM 6:33 PM
Waxing Gibbous, 72% visible
Pressure 30.27 in
Visibility 5.0 miles
Clouds Overcast 700 ft
Windchill 24 °F
Dew Point 32 °F
Humidity 92%
Rainfall 0.00 in
Snow Depth Not available.
UV 0 out of 12
Pollen 8.30 out of 12
Air Quality Not available.
Flu Activity Not available.
METAR KCVB 272335Z AUTO 06010G14KT 5SM BR OVC007 01/00 A3027 RMK AO2 T00100000

More Conditions Fewer Conditions

Pressure 30.27 in
Visibility 5.0 miles
Clouds Overcast 700 ft
Windchill 24 °F
Dew Point 32 °F
Humidity 92%
Rainfall 0.00 in
Snow Depth Not available.
UV 0 out of 12
Pollen 8.30 out of 12
Air Quality Not available.
Flu Activity Not available.
METAR KCVB 272335Z AUTO 06010G14KT 5SM BR OVC007 01/00 A3027 RMK AO2 T00100000

More Conditions Fewer Conditions

Nowcast | as of 2:52 PM CST on February 27, 2015

Through the late afternoon and evening...patchy drizzle and light rain will occur. Rainfall will amount from a trace to a few hundredths of an inch.

×

10-Day Weather Forecast

Almanac

Astronomy

Feb. 27, 2015 Rise Set
Actual Time
Civil Twilight
Nautical Twilight
Astronomical Twilight
Moon
Length of Visible Light
Length of Day
Tomorrow will be .
, % of the Moon is Illuminated

Today's Extremes

State Highs State Lows

Community

WunderPhotos

Upload Photos

1,800,881 photos uploaded!

WunderBlogs® & News

Nearby

Air Quality

  Air Quality AQ Index Pollutant
Not available.

Snow Depth

Station Depth Elevation

Earthquake Activity

City Distance Mag. Time & Date
Minimum magnitude displayed is 2.5.

Coastal Water Temperatures

Place Temperature

Nearby Weather Stations